createdAt,value
2023-05-20T00:00:06.734Z,4.63
2023-05-20T00:02:08.758Z,11.90
2023-05-20T00:04:10.995Z,5.00
2023-05-20T00:06:13.343Z,5.40
2023-05-20T00:08:15.665Z,3.90
2023-05-20T00:10:17.812Z,7.03
2023-05-20T00:12:19.963Z,4.67
2023-05-20T00:14:22.065Z,5.30
2023-05-20T00:16:24.161Z,5.83
2023-05-20T00:18:26.280Z,5.23
2023-05-20T00:20:28.823Z,4.47
2023-05-20T00:22:31.031Z,5.77
2023-05-20T00:24:33.090Z,6.93
2023-05-20T00:26:35.160Z,6.93
2023-05-20T00:28:37.202Z,6.33
2023-05-20T00:30:42.181Z,7.70
2023-05-20T00:32:44.404Z,7.57
2023-05-20T00:34:56.432Z,6.03
2023-05-20T00:36:58.971Z,8.67
2023-05-20T00:39:01.121Z,6.20
2023-05-20T00:41:03.194Z,6.57
2023-05-20T00:43:05.338Z,5.70
2023-05-20T00:45:08.034Z,6.60
2023-05-20T00:47:10.209Z,7.40
2023-05-20T00:49:12.344Z,10.67
2023-05-20T00:51:14.715Z,7.50
2023-05-20T00:53:21.259Z,5.63
2023-05-20T00:55:23.420Z,6.50
2023-05-20T00:57:26.090Z,5.90
2023-05-20T00:59:28.237Z,6.47
2023-05-20T01:01:30.491Z,8.50
2023-05-20T01:03:33.526Z,6.33
2023-05-20T01:05:36.196Z,7.00
2023-05-20T01:07:38.980Z,9.13
2023-05-20T01:09:41.280Z,8.73
2023-05-20T01:11:56.738Z,7.50
2023-05-20T01:14:02.266Z,6.77
2023-05-20T01:16:05.048Z,8.83
2023-05-20T01:18:10.691Z,5.83
2023-05-20T01:20:14.360Z,5.60
2023-05-20T01:22:16.538Z,6.40
2023-05-20T01:24:19.750Z,5.67
2023-05-20T01:26:21.965Z,4.63
2023-05-20T01:28:24.137Z,6.30
2023-05-20T01:30:30.311Z,7.47
2023-05-20T01:32:35.354Z,10.43
2023-05-20T01:34:38.129Z,6.40
2023-05-20T01:36:40.725Z,7.00
2023-05-20T01:38:43.388Z,6.33
2023-05-20T01:40:46.824Z,5.17
2023-05-20T01:42:53.235Z,6.03
2023-05-20T01:44:55.808Z,5.23
2023-05-20T01:46:57.967Z,7.40
2023-05-20T01:49:00.683Z,8.80
2023-05-20T01:51:02.802Z,6.70
2023-05-20T01:53:04.880Z,5.20
2023-05-20T01:55:07.185Z,9.30
2023-05-20T01:57:09.261Z,5.13
2023-05-20T01:59:11.324Z,6.10
2023-05-20T02:01:15.169Z,5.57
2023-05-20T02:03:18.900Z,5.83
2023-05-20T02:05:21.116Z,6.10
2023-05-20T02:07:23.256Z,7.47
2023-05-20T02:09:27.143Z,8.30
2023-05-20T02:11:29.324Z,8.83
2023-05-20T02:13:31.502Z,6.70
2023-05-20T02:15:34.060Z,7.03
2023-05-20T02:17:37.256Z,7.30
2023-05-20T02:19:39.618Z,8.53
2023-05-20T02:21:42.398Z,10.50
2023-05-20T02:23:45.368Z,6.43
2023-05-20T02:25:47.550Z,10.00
2023-05-20T02:27:49.648Z,9.80
2023-05-20T02:29:52.082Z,7.93
2023-05-20T02:31:54.194Z,7.30
2023-05-20T02:33:56.880Z,6.93
2023-05-20T02:35:58.973Z,10.47
2023-05-20T02:38:01.265Z,8.20
2023-05-20T02:40:05.093Z,8.73
2023-05-20T02:42:07.158Z,14.83
2023-05-20T02:44:09.251Z,13.13
2023-05-20T02:46:11.430Z,7.93
2023-05-20T02:48:15.000Z,10.80
2023-05-20T02:50:17.164Z,11.70
2023-05-20T02:52:19.586Z,10.30
2023-05-20T02:54:22.106Z,11.40
2023-05-20T02:56:24.730Z,12.23
2023-05-20T02:58:27.790Z,11.73
2023-05-20T03:00:31.506Z,10.47
2023-05-20T03:02:34.425Z,9.20
2023-05-20T03:04:38.924Z,10.27
2023-05-20T03:06:44.451Z,11.17
2023-05-20T03:08:46.632Z,9.20
2023-05-20T03:10:50.898Z,14.30
2023-05-20T03:12:53.272Z,10.80
2023-05-20T03:14:56.191Z,12.70
2023-05-20T03:17:00.027Z,11.20
2023-05-20T03:19:02.382Z,11.33
2023-05-20T03:21:04.644Z,10.90
2023-05-20T03:23:07.476Z,15.30
2023-05-20T03:25:11.366Z,14.97
2023-05-20T03:27:13.422Z,13.87
2023-05-20T03:29:18.046Z,16.37
2023-05-20T03:31:21.157Z,12.93
2023-05-20T03:33:26.199Z,12.37
2023-05-20T03:35:29.456Z,14.90
2023-05-20T03:37:31.761Z,12.47
2023-05-20T03:39:33.858Z,15.00
2023-05-20T03:41:36.159Z,10.90
2023-05-20T03:43:38.448Z,11.63
2023-05-20T03:45:41.091Z,11.77
2023-05-20T03:47:43.494Z,11.80
2023-05-20T03:49:46.175Z,12.80
2023-05-20T03:51:48.436Z,13.37
2023-05-20T03:53:51.077Z,12.10
2023-05-20T03:55:53.287Z,13.17
2023-05-20T03:57:55.636Z,11.07
2023-05-20T03:59:57.913Z,16.83
2023-05-20T04:02:00.376Z,16.50
2023-05-20T04:04:03.331Z,18.30
2023-05-20T04:06:05.684Z,13.13
2023-05-20T04:08:09.947Z,12.67
2023-05-20T04:10:12.557Z,12.20
2023-05-20T04:12:14.624Z,15.83
2023-05-20T04:14:16.753Z,13.07
2023-05-20T04:16:19.071Z,15.93
2023-05-20T04:18:21.385Z,14.50
2023-05-20T04:20:24.465Z,11.60
2023-05-20T04:22:29.955Z,10.37
2023-05-20T04:24:32.168Z,13.43
2023-05-20T04:26:35.442Z,16.70
2023-05-20T04:28:37.817Z,11.80
2023-05-20T04:30:39.947Z,13.03
2023-05-20T04:32:42.657Z,11.50
2023-05-20T04:34:45.683Z,10.97
2023-05-20T04:36:49.047Z,13.40
2023-05-20T04:38:51.634Z,15.90
2023-05-20T04:40:53.829Z,12.30
2023-05-20T04:42:56.007Z,10.67
2023-05-20T04:44:58.302Z,11.27
2023-05-20T04:47:00.787Z,14.50
2023-05-20T04:49:04.605Z,11.67
2023-05-20T04:51:06.833Z,12.67
2023-05-20T04:53:09.062Z,12.53
2023-05-20T04:55:11.937Z,18.30
2023-05-20T04:57:14.103Z,12.87
2023-05-20T04:59:16.202Z,12.80
2023-05-20T05:01:18.551Z,17.13
2023-05-20T05:03:20.678Z,11.07
2023-05-20T05:05:23.702Z,10.27
2023-05-20T05:07:25.843Z,11.77
2023-05-20T05:09:28.070Z,13.63
2023-05-20T05:11:31.026Z,11.17
2023-05-20T05:13:33.048Z,12.30
2023-05-20T05:15:35.428Z,16.90
2023-05-20T05:17:39.346Z,11.90
2023-05-20T05:19:41.924Z,9.50
2023-05-20T05:21:44.066Z,13.63
2023-05-20T05:23:47.429Z,16.07
2023-05-20T05:25:53.184Z,12.47
2023-05-20T05:27:56.195Z,14.40
2023-05-20T05:29:58.701Z,12.57
2023-05-20T05:32:01.220Z,10.00
2023-05-20T05:34:03.766Z,12.73
2023-05-20T05:36:06.601Z,18.70
2023-05-20T05:38:09.607Z,12.73
2023-05-20T05:40:12.656Z,11.50
2023-05-20T05:42:15.551Z,15.40
2023-05-20T05:44:18.265Z,15.53
2023-05-20T05:46:20.529Z,16.80
2023-05-20T05:48:23.194Z,13.97
2023-05-20T05:50:25.309Z,12.60
2023-05-20T05:52:27.951Z,15.63
2023-05-20T05:54:30.173Z,16.57
2023-05-20T05:56:32.436Z,12.40
2023-05-20T05:58:35.023Z,17.47
2023-05-20T06:00:38.033Z,13.90
2023-05-20T06:02:40.269Z,16.93
2023-05-20T06:04:42.690Z,13.20
2023-05-20T06:06:44.886Z,12.47
2023-05-20T06:08:46.951Z,15.53
2023-05-20T06:10:50.026Z,13.87
2023-05-20T06:12:52.270Z,16.63
2023-05-20T06:14:54.968Z,16.03
2023-05-20T06:16:57.175Z,13.70
2023-05-20T06:19:01.768Z,16.40
2023-05-20T06:21:06.261Z,15.10
2023-05-20T06:23:08.444Z,14.77
2023-05-20T06:25:23.187Z,12.90
2023-05-20T06:27:25.711Z,15.83
2023-05-20T06:29:29.066Z,14.33
2023-05-20T06:31:31.253Z,14.43
2023-05-20T06:33:33.534Z,13.20
2023-05-20T06:35:40.411Z,15.67
2023-05-20T06:37:42.530Z,16.50
2023-05-20T06:39:44.833Z,15.00
2023-05-20T06:41:47.592Z,13.33
2023-05-20T06:44:01.550Z,15.07
2023-05-20T06:46:22.407Z,14.93
2023-05-20T06:48:30.164Z,13.40
2023-05-20T06:50:32.753Z,14.23
2023-05-20T06:52:35.065Z,15.03
2023-05-20T06:54:41.537Z,16.30
2023-05-20T06:56:45.872Z,15.70
2023-05-20T06:58:49.520Z,19.77
2023-05-20T07:00:51.954Z,15.80
2023-05-20T07:02:55.048Z,16.10
2023-05-20T07:04:57.096Z,26.63
2023-05-20T07:06:59.196Z,15.00
2023-05-20T07:09:01.420Z,16.47
2023-05-20T07:11:03.615Z,13.80
2023-05-20T07:13:05.798Z,16.70
2023-05-20T07:15:08.812Z,16.87
2023-05-20T07:17:11.404Z,22.27
2023-05-20T07:19:14.123Z,25.30
2023-05-20T07:21:16.859Z,18.20
2023-05-20T07:23:32.568Z,16.43
2023-05-20T07:25:34.897Z,22.83
2023-05-20T07:27:37.101Z,18.00
2023-05-20T07:29:39.472Z,16.47
2023-05-20T07:31:41.627Z,16.23
2023-05-20T07:33:43.826Z,18.20
2023-05-20T07:35:46.300Z,16.20
2023-05-20T07:37:48.799Z,17.40
2023-05-20T07:39:51.323Z,21.00
2023-05-20T07:41:53.624Z,15.07
2023-05-20T07:43:56.007Z,16.87
2023-05-20T07:45:58.630Z,16.37
2023-05-20T07:48:00.878Z,21.00
2023-05-20T07:50:03.228Z,18.77
2023-05-20T07:52:08.229Z,17.20
2023-05-20T07:54:10.681Z,16.27
2023-05-20T07:56:12.927Z,16.77
2023-05-20T07:58:15.224Z,19.77
2023-05-20T08:00:17.683Z,20.40
2023-05-20T08:02:19.897Z,18.60
2023-05-20T08:04:23.417Z,22.90
2023-05-20T08:06:29.411Z,18.77
2023-05-20T08:08:33.272Z,19.30
2023-05-20T08:10:41.051Z,19.30
2023-05-20T08:12:43.675Z,18.60
2023-05-20T08:14:46.370Z,23.93
2023-05-20T08:16:49.074Z,19.20
2023-05-20T08:18:51.725Z,20.60
2023-05-20T08:20:56.016Z,17.43
2023-05-20T08:22:58.292Z,15.90
2023-05-20T08:25:00.737Z,19.50
2023-05-20T08:27:03.013Z,16.83
2023-05-20T08:29:06.199Z,17.10
2023-05-20T08:31:09.821Z,17.57
2023-05-20T08:33:13.184Z,23.37
2023-05-20T08:35:15.587Z,27.03
2023-05-20T08:37:18.195Z,19.33
2023-05-20T08:39:20.500Z,19.93
2023-05-20T08:41:23.025Z,20.40
2023-05-20T08:43:26.794Z,24.40
2023-05-20T08:45:33.014Z,21.97
2023-05-20T08:47:43.044Z,26.73
2023-05-20T08:49:45.295Z,25.27
2023-05-20T08:51:48.312Z,20.03
2023-05-20T08:53:50.553Z,18.70
2023-05-20T08:56:01.019Z,20.93
2023-05-20T08:58:04.663Z,24.27
2023-05-20T09:00:13.279Z,21.57
2023-05-20T09:02:15.810Z,20.97
2023-05-20T09:04:18.548Z,20.20
2023-05-20T09:06:20.894Z,22.37
2023-05-20T09:08:26.924Z,22.33
2023-05-20T09:10:29.133Z,22.53
2023-05-20T09:12:31.401Z,17.80
2023-05-20T09:14:33.594Z,23.77
2023-05-20T09:16:36.091Z,23.20
2023-05-20T09:18:41.700Z,19.73
2023-05-20T09:20:47.258Z,23.63
2023-05-20T09:22:53.260Z,23.73
2023-05-20T09:24:56.180Z,21.00
2023-05-20T09:26:58.819Z,19.20
2023-05-20T09:29:01.031Z,20.67
2023-05-20T09:31:06.664Z,24.60
2023-05-20T09:33:09.429Z,20.33
2023-05-20T09:35:15.642Z,22.70
2023-05-20T09:37:22.101Z,24.37
2023-05-20T09:39:30.815Z,20.03
2023-05-20T09:41:45.098Z,21.33
2023-05-20T09:43:48.022Z,19.20
2023-05-20T09:45:50.461Z,22.17
2023-05-20T09:47:54.635Z,24.37
2023-05-20T09:49:58.482Z,23.43
2023-05-20T09:52:03.575Z,21.33
2023-05-20T09:54:08.509Z,20.63
2023-05-20T09:56:11.313Z,18.63
2023-05-20T09:58:16.293Z,24.53
2023-05-20T10:00:19.783Z,21.20
2023-05-20T10:02:22.786Z,20.07
2023-05-20T10:04:26.072Z,24.73
2023-05-20T10:06:51.204Z,18.13
2023-05-20T10:09:22.983Z,18.97
2023-05-20T10:11:46.195Z,18.33
2023-05-20T10:14:17.629Z,21.10
2023-05-20T10:17:08.797Z,25.97
2023-05-20T10:19:29.909Z,15.80
2023-05-20T10:21:32.942Z,18.43
2023-05-20T10:23:35.234Z,19.90
2023-05-20T10:25:37.843Z,17.90
2023-05-20T10:27:45.663Z,18.00
2023-05-20T10:29:52.747Z,18.50
2023-05-20T10:31:55.775Z,18.93
2023-05-20T10:33:59.157Z,18.87
2023-05-20T10:36:01.445Z,18.00
2023-05-20T10:38:11.871Z,18.00
2023-05-20T10:40:15.803Z,18.30
2023-05-20T10:42:28.408Z,19.70
2023-05-20T10:44:41.328Z,22.00
2023-05-20T10:48:50.939Z,20.50
2023-05-20T10:50:58.154Z,21.70
2023-05-20T10:53:05.294Z,22.97
2023-05-20T10:55:08.102Z,46.00
2023-05-20T10:57:11.445Z,21.60
2023-05-20T10:59:13.815Z,19.00
2023-05-20T11:01:16.886Z,18.90
2023-05-20T11:03:22.542Z,17.10
2023-05-20T11:05:26.844Z,18.43
2023-05-20T11:07:30.045Z,20.63
2023-05-20T11:09:32.497Z,17.03
2023-05-20T11:11:34.753Z,20.67
2023-05-20T11:13:37.549Z,18.20
2023-05-20T11:15:40.196Z,19.63
2023-05-20T11:17:54.467Z,21.00
2023-05-20T11:19:56.918Z,18.53
2023-05-20T11:21:59.188Z,21.90
2023-05-20T11:24:01.544Z,28.63
2023-05-20T11:26:04.128Z,20.83
2023-05-20T11:28:12.728Z,19.23
2023-05-20T11:30:18.673Z,18.73
2023-05-20T11:32:21.551Z,21.40
2023-05-20T11:34:26.374Z,21.67
2023-05-20T11:36:30.410Z,19.47
2023-05-20T11:38:32.714Z,22.03
2023-05-20T11:40:46.288Z,21.33
2023-05-20T11:42:57.421Z,23.03
2023-05-20T11:45:02.911Z,18.80
2023-05-20T11:47:05.443Z,17.47
2023-05-20T11:49:08.724Z,16.03
2023-05-20T11:51:11.004Z,16.10
2023-05-20T11:53:19.405Z,14.37
2023-05-20T11:55:21.593Z,15.40
2023-05-20T11:57:23.824Z,14.70
2023-05-20T11:59:26.269Z,14.43
2023-05-20T12:01:40.888Z,16.10
2023-05-20T12:03:43.192Z,18.83
2023-05-20T12:05:47.641Z,15.93
2023-05-20T12:07:49.902Z,18.17
2023-05-20T12:09:52.122Z,20.67
2023-05-20T12:11:56.590Z,16.03
2023-05-20T12:13:58.810Z,17.03
2023-05-20T12:16:01.109Z,19.77
2023-05-20T12:18:03.572Z,15.70
2023-05-20T12:20:07.481Z,18.43
2023-05-20T12:22:10.025Z,20.30
2023-05-20T12:24:12.204Z,15.27
2023-05-20T12:26:14.517Z,15.03
2023-05-20T12:28:19.862Z,15.13
2023-05-20T12:30:23.279Z,15.03
2023-05-20T12:32:25.511Z,15.63
2023-05-20T12:34:27.789Z,15.90
2023-05-20T12:36:30.066Z,25.73
2023-05-20T12:38:32.332Z,20.20
2023-05-20T12:40:35.611Z,14.60
2023-05-20T12:42:39.294Z,18.80
2023-05-20T12:44:41.506Z,18.20
2023-05-20T12:46:43.792Z,15.57
2023-05-20T12:48:46.068Z,17.03
2023-05-20T12:50:48.289Z,20.13
2023-05-20T12:52:50.634Z,20.90
2023-05-20T12:54:56.680Z,18.70
2023-05-20T12:56:58.930Z,19.60
2023-05-20T12:59:02.145Z,19.10
2023-05-20T13:01:04.623Z,16.53
2023-05-20T13:03:07.062Z,22.50
2023-05-20T13:05:10.283Z,19.63
2023-05-20T13:07:12.640Z,18.33
2023-05-20T13:09:15.338Z,17.83
2023-05-20T13:11:17.593Z,15.90
2023-05-20T13:13:21.815Z,17.27
2023-05-20T13:15:24.285Z,15.97
2023-05-20T13:17:27.538Z,19.97
2023-05-20T13:19:29.953Z,17.20
2023-05-20T13:21:32.412Z,21.00
2023-05-20T13:23:34.616Z,18.67
2023-05-20T13:25:37.007Z,23.10
2023-05-20T13:27:40.478Z,24.10
2023-05-20T13:29:43.748Z,21.57
2023-05-20T13:31:47.368Z,19.17
2023-05-20T13:33:49.684Z,19.83
2023-05-20T13:35:51.954Z,20.07
2023-05-20T13:37:54.163Z,21.27
2023-05-20T13:39:56.340Z,21.97
2023-05-20T13:41:58.992Z,19.00
2023-05-20T13:44:01.231Z,18.27
2023-05-20T13:46:03.515Z,20.80
2023-05-20T13:48:06.327Z,23.27
2023-05-20T13:50:09.368Z,20.70
2023-05-20T13:52:11.575Z,22.60
2023-05-20T13:54:13.823Z,21.83
2023-05-20T13:56:16.413Z,26.90
2023-05-20T13:58:18.691Z,18.93
2023-05-20T14:00:20.932Z,23.80
2023-05-20T14:02:23.148Z,19.83
2023-05-20T14:04:26.178Z,18.47
2023-05-20T14:06:29.529Z,24.00
2023-05-20T14:08:31.773Z,18.77
2023-05-20T14:10:34.178Z,20.97
2023-05-20T14:12:36.574Z,22.53
2023-05-20T14:14:38.821Z,19.67
2023-05-20T14:16:41.082Z,21.93
2023-05-20T14:18:43.370Z,18.07
2023-05-20T14:20:46.100Z,20.60
2023-05-20T14:22:48.314Z,21.10
2023-05-20T14:24:50.550Z,17.60
2023-05-20T14:26:52.960Z,18.90
2023-05-20T14:28:55.200Z,25.70
2023-05-20T14:30:57.414Z,17.30
2023-05-20T14:32:59.735Z,19.80
2023-05-20T14:35:02.030Z,19.40
2023-05-20T14:37:09.795Z,16.90
2023-05-20T14:39:12.027Z,16.43
2023-05-20T14:41:14.341Z,21.50
2023-05-20T14:43:16.632Z,18.90
2023-05-20T14:45:19.564Z,17.17
2023-05-20T14:47:22.491Z,18.43
2023-05-20T14:49:24.819Z,17.20
2023-05-20T14:51:27.083Z,17.77
2023-05-20T14:53:29.332Z,20.03
2023-05-20T14:55:31.609Z,22.83
2023-05-20T14:57:34.074Z,20.53
2023-05-20T14:59:36.740Z,19.57
2023-05-20T15:01:39.105Z,22.30
2023-05-20T15:03:41.597Z,19.87
2023-05-20T15:05:43.930Z,18.40
2023-05-20T15:07:47.013Z,18.80
2023-05-20T15:09:50.049Z,18.60
2023-05-20T15:11:52.758Z,20.87
2023-05-20T15:13:55.005Z,20.73
2023-05-20T15:15:57.574Z,21.63
2023-05-20T15:17:59.806Z,22.30
2023-05-20T15:20:02.259Z,20.60
2023-05-20T15:22:04.752Z,27.40
2023-05-20T15:24:07.116Z,21.20
2023-05-20T15:26:12.053Z,21.13
2023-05-20T15:28:14.285Z,23.83
2023-05-20T15:30:17.222Z,21.13
2023-05-20T15:32:20.106Z,21.33
2023-05-20T15:34:22.559Z,21.80
2023-05-20T15:36:24.878Z,21.90
2023-05-20T15:38:27.216Z,18.37
2023-05-20T15:40:29.578Z,20.73
2023-05-20T15:42:31.928Z,20.00
2023-05-20T15:44:36.136Z,20.83
2023-05-20T15:46:38.628Z,18.23
2023-05-20T15:48:41.239Z,18.67
2023-05-20T15:50:43.460Z,17.17
2023-05-20T15:52:45.684Z,18.17
2023-05-20T15:54:47.953Z,18.80
2023-05-20T15:56:50.167Z,15.77
2023-05-20T15:58:52.839Z,15.30
2023-05-20T16:00:55.222Z,15.70
2023-05-20T16:02:57.708Z,19.37
2023-05-20T16:04:59.976Z,13.53
2023-05-20T16:07:02.262Z,13.43
2023-05-20T16:09:04.681Z,14.90
2023-05-20T16:11:07.605Z,14.63
2023-05-20T16:13:10.070Z,18.60
2023-05-20T16:15:12.461Z,19.10
2023-05-20T16:17:16.296Z,13.60
2023-05-20T16:19:18.640Z,14.90
2023-05-20T16:21:21.165Z,12.03
2023-05-20T16:23:23.883Z,12.00
2023-05-20T16:25:26.133Z,10.50
2023-05-20T16:27:28.388Z,13.40
2023-05-20T16:29:30.549Z,10.93
2023-05-20T16:31:32.929Z,16.60
2023-05-20T16:33:35.132Z,14.40
2023-05-20T16:35:37.352Z,11.00
2023-05-20T16:37:39.672Z,11.47
2023-05-20T16:39:41.920Z,14.83
2023-05-20T16:41:44.216Z,17.97
2023-05-20T16:43:46.376Z,10.50
2023-05-20T16:45:48.805Z,14.10
2023-05-20T16:47:51.146Z,11.37
2023-05-20T16:49:53.442Z,12.77
2023-05-20T16:51:55.704Z,17.83
2023-05-20T16:53:57.962Z,10.90
2023-05-20T16:56:00.216Z,11.93
2023-05-20T16:58:02.991Z,9.47
2023-05-20T17:00:08.204Z,10.90
2023-05-20T17:02:10.778Z,13.30
2023-05-20T17:04:13.134Z,8.93
2023-05-20T17:06:15.403Z,12.10
2023-05-20T17:08:18.307Z,10.73
2023-05-20T17:10:20.531Z,10.10
2023-05-20T17:12:22.846Z,13.07
2023-05-20T17:14:25.103Z,10.17
2023-05-20T17:16:27.599Z,9.80
2023-05-20T17:18:30.084Z,9.83
2023-05-20T17:20:32.923Z,12.80
2023-05-20T17:22:35.532Z,11.10
2023-05-20T17:24:37.699Z,12.10
2023-05-20T17:26:40.045Z,13.97
2023-05-20T17:28:43.060Z,11.67
2023-05-20T17:30:45.656Z,11.10
2023-05-20T17:32:47.982Z,10.20
2023-05-20T17:34:50.486Z,13.37
2023-05-20T17:36:52.662Z,13.20
2023-05-20T17:38:54.953Z,11.53
2023-05-20T17:40:57.226Z,11.50
2023-05-20T17:42:59.408Z,14.90
2023-05-20T17:45:01.681Z,12.00
2023-05-20T17:47:04.740Z,13.60
2023-05-20T17:49:06.970Z,14.87
2023-05-20T17:51:09.159Z,14.70
2023-05-20T17:53:11.516Z,14.53
2023-05-20T17:55:14.591Z,18.50
2023-05-20T17:57:16.999Z,21.77
2023-05-20T17:59:19.213Z,15.10
2023-05-20T18:01:21.527Z,19.23
2023-05-20T18:03:23.880Z,16.27
2023-05-20T18:05:26.314Z,16.80
2023-05-20T18:07:30.589Z,18.67
2023-05-20T18:09:32.878Z,16.00
2023-05-20T18:11:35.721Z,15.77
2023-05-20T18:13:38.018Z,16.20
2023-05-20T18:15:40.324Z,17.97
2023-05-20T18:17:43.073Z,16.27
2023-05-20T18:19:45.413Z,11.73
2023-05-20T18:21:47.613Z,14.67
2023-05-20T18:23:50.243Z,15.57
2023-05-20T18:25:52.483Z,18.23
2023-05-20T18:27:55.976Z,12.23
2023-05-20T18:29:58.212Z,11.90
2023-05-20T18:32:00.606Z,13.40
2023-05-20T18:34:03.095Z,12.00
2023-05-20T18:36:06.077Z,12.77
2023-05-20T18:38:08.338Z,12.77
2023-05-20T18:40:11.058Z,11.03
2023-05-20T18:42:13.333Z,13.27
2023-05-20T18:44:16.976Z,11.10
2023-05-20T18:46:19.257Z,15.73
2023-05-20T18:48:26.690Z,11.50
2023-05-20T18:50:29.593Z,11.40
2023-05-20T18:52:31.855Z,11.50
2023-05-20T18:54:34.019Z,10.10
2023-05-20T18:56:36.360Z,12.17
2023-05-20T18:58:38.653Z,12.17
2023-05-20T19:00:41.584Z,18.23
2023-05-20T19:02:44.654Z,10.60
2023-05-20T19:04:46.936Z,12.47
2023-05-20T19:06:49.337Z,11.57
2023-05-20T19:08:51.594Z,14.77
2023-05-20T19:10:54.144Z,14.33
2023-05-20T19:12:56.646Z,13.93
2023-05-20T19:14:58.967Z,10.80
2023-05-20T19:17:01.418Z,11.73
2023-05-20T19:19:03.801Z,12.80
2023-05-20T19:21:06.350Z,10.50
2023-05-20T19:23:08.637Z,11.13
2023-05-20T19:25:11.413Z,14.00
2023-05-20T19:27:13.610Z,11.67
2023-05-20T19:29:16.018Z,11.87
2023-05-20T19:31:21.114Z,15.63
2023-05-20T19:33:23.562Z,13.70
2023-05-20T19:35:25.984Z,11.80
2023-05-20T19:37:28.247Z,14.10
2023-05-20T19:39:30.707Z,12.07
2023-05-20T19:41:32.935Z,13.23
2023-05-20T19:43:35.127Z,15.43
2023-05-20T19:45:37.682Z,11.93
2023-05-20T19:47:40.372Z,13.97
2023-05-20T19:49:42.657Z,13.03
2023-05-20T19:51:44.902Z,13.67
2023-05-20T19:53:47.134Z,12.80
2023-05-20T19:55:49.473Z,12.97
2023-05-20T19:57:54.440Z,13.43
2023-05-20T19:59:56.636Z,13.60
2023-05-20T20:02:02.833Z,13.13
2023-05-20T20:04:05.659Z,13.83
2023-05-20T20:06:09.297Z,15.53
2023-05-20T20:08:11.506Z,12.87
2023-05-20T20:10:13.880Z,14.43
2023-05-20T20:12:16.094Z,19.33
2023-05-20T20:14:18.349Z,13.10
2023-05-20T20:16:20.623Z,13.97
2023-05-20T20:18:22.852Z,14.03
2023-05-20T20:20:26.754Z,16.13
2023-05-20T20:22:29.177Z,17.87
2023-05-20T20:24:31.437Z,13.80
2023-05-20T20:26:34.669Z,13.70
2023-05-20T20:28:36.864Z,14.47
2023-05-20T20:30:39.170Z,14.77
2023-05-20T20:32:41.806Z,14.87
2023-05-20T20:34:44.159Z,15.50
2023-05-20T20:36:47.264Z,16.00
2023-05-20T20:38:50.195Z,15.03
2023-05-20T20:40:53.634Z,17.07
2023-05-20T20:42:58.449Z,20.10
2023-05-20T20:45:00.671Z,17.07
2023-05-20T20:47:04.493Z,16.97
2023-05-20T20:49:07.101Z,19.80
2023-05-20T20:51:09.306Z,16.73
2023-05-20T20:53:12.871Z,15.60
2023-05-20T20:55:15.084Z,17.67
2023-05-20T20:57:17.557Z,17.20
2023-05-20T20:59:26.231Z,16.43
2023-05-20T21:01:29.841Z,16.37
2023-05-20T21:03:37.083Z,14.80
2023-05-20T21:05:39.391Z,19.27
2023-05-20T21:07:44.587Z,16.77
2023-05-20T21:09:46.852Z,16.23
2023-05-20T21:11:49.437Z,20.40
2023-05-20T21:13:53.087Z,16.60
2023-05-20T21:15:55.539Z,20.20
2023-05-20T21:17:57.818Z,14.87
2023-05-20T21:20:00.094Z,18.07
2023-05-20T21:22:02.480Z,20.00
2023-05-20T21:24:04.837Z,22.00
2023-05-20T21:26:07.505Z,23.40
2023-05-20T21:28:09.801Z,17.07
2023-05-20T21:30:12.288Z,21.73
2023-05-20T21:32:14.499Z,24.63
2023-05-20T21:34:17.278Z,19.60
2023-05-20T21:36:21.350Z,17.63
2023-05-20T21:38:23.523Z,17.53
2023-05-20T21:40:25.793Z,17.10
2023-05-20T21:42:28.065Z,17.60
2023-05-20T21:44:30.381Z,19.13
2023-05-20T21:46:32.719Z,21.60
2023-05-20T21:48:35.041Z,18.63
2023-05-20T21:50:37.343Z,20.80
2023-05-20T21:52:40.032Z,18.40
2023-05-20T21:54:42.507Z,20.57
2023-05-20T21:56:44.762Z,26.43
2023-05-20T21:58:47.022Z,18.00
2023-05-20T22:00:49.263Z,18.77
2023-05-20T22:02:51.547Z,21.17
2023-05-20T22:04:55.263Z,20.80
2023-05-20T22:06:57.578Z,20.63
2023-05-20T22:09:00.623Z,20.17
2023-05-20T22:11:07.300Z,22.17
2023-05-20T22:13:13.691Z,19.47
2023-05-20T22:15:16.034Z,23.47
2023-05-20T22:17:18.384Z,21.93
2023-05-20T22:19:21.820Z,20.53
2023-05-20T22:21:24.622Z,23.43
2023-05-20T22:23:27.863Z,22.30
2023-05-20T22:25:30.072Z,23.17
2023-05-20T22:27:32.897Z,26.10
2023-05-20T22:29:35.291Z,18.60
2023-05-20T22:31:38.112Z,23.50
2023-05-20T22:33:41.534Z,20.80
2023-05-20T22:35:43.758Z,22.53
2023-05-20T22:37:45.874Z,21.93
2023-05-20T22:39:47.902Z,21.90
2023-05-20T22:41:49.995Z,21.37
2023-05-20T22:43:52.089Z,20.73
2023-05-20T22:45:54.214Z,20.93
2023-05-20T22:47:56.394Z,23.73
2023-05-20T22:50:02.439Z,24.73
2023-05-20T22:52:06.253Z,20.57
2023-05-20T22:54:09.578Z,20.70
2023-05-20T22:56:11.625Z,19.80
2023-05-20T22:58:13.939Z,23.83
2023-05-20T23:00:18.139Z,23.20
2023-05-20T23:02:20.552Z,21.77
2023-05-20T23:04:22.648Z,20.47
2023-05-20T23:06:25.402Z,24.50
2023-05-20T23:08:28.178Z,25.80
2023-05-20T23:10:30.292Z,22.10
2023-05-20T23:12:32.307Z,21.53
2023-05-20T23:14:34.451Z,26.00
2023-05-20T23:16:40.094Z,26.97
2023-05-20T23:18:42.381Z,24.17
2023-05-20T23:20:44.560Z,25.67
2023-05-20T23:22:46.688Z,22.63
2023-05-20T23:24:48.880Z,23.10
2023-05-20T23:26:51.218Z,22.73
2023-05-20T23:28:53.264Z,23.70
2023-05-20T23:30:55.345Z,27.80
2023-05-20T23:32:57.837Z,25.10
2023-05-20T23:35:02.710Z,24.77
2023-05-20T23:37:04.831Z,26.07
2023-05-20T23:39:07.389Z,27.00
2023-05-20T23:41:09.548Z,24.30
2023-05-20T23:43:11.637Z,23.57
2023-05-20T23:45:13.776Z,35.70
2023-05-20T23:47:16.105Z,23.83
2023-05-20T23:49:18.539Z,25.07
2023-05-20T23:51:20.752Z,29.23
2023-05-20T23:53:22.888Z,30.03
2023-05-20T23:55:24.847Z,25.10
2023-05-20T23:57:26.841Z,28.90
2023-05-20T23:59:28.854Z,27.13
